Time;durP1;ratioP1;P1;durP2;ratioP2;P2;SDS_P1;SDS_P2;PMS_P1;PMS_P2;Temp;Humidity;BMP_temperature;BMP_pressure;BME280_temperature;BME280_humidity;BME280_pressure;Samples;Min_cycle;Max_cycle;Signal;HPM_P1;HPM_P2
2021/05/20 00:01:02;;;;;;;6.80;5.40;;;11.00;99.90;;;;;;4975024;28;20792;-80
2021/05/20 00:03:28;;;;;;;6.03;5.10;;;10.70;99.90;;;;;;4973559;28;20565;-80
2021/05/20 00:05:54;;;;;;;7.57;5.22;;;10.70;99.90;;;;;;4974851;28;20228;-80
2021/05/20 00:08:19;;;;;;;6.10;4.90;;;10.80;99.90;;;;;;4974587;28;20193;-81
2021/05/20 00:10:45;;;;;;;5.40;4.90;;;10.90;99.90;;;;;;4973300;28;20640;-80
2021/05/20 00:13:11;;;;;;;8.30;5.00;;;11.00;99.90;;;;;;4974623;28;20979;-80
2021/05/20 00:15:36;;;;;;;6.22;5.63;;;11.00;99.90;;;;;;4973690;28;20648;-81
2021/05/20 00:18:02;;;;;;;5.25;4.85;;;10.90;99.90;;;;;;4973244;28;20625;-80
2021/05/20 00:20:28;;;;;;;7.75;5.60;;;10.80;99.90;;;;;;4974515;28;20248;-81
2021/05/20 00:22:53;;;;;;;6.05;5.43;;;10.90;99.90;;;;;;4973682;28;20180;-79
2021/05/20 00:25:19;;;;;;;5.75;5.25;;;10.80;99.90;;;;;;4974693;28;20612;-80
2021/05/20 00:27:44;;;;;;;5.95;5.38;;;10.50;99.90;;;;;;4974076;28;20248;-80
2021/05/20 00:30:11;;;;;;;10.98;5.15;;;10.50;99.90;;;;;;4972843;28;20166;-80
2021/05/20 00:32:37;;;;;;;5.32;4.88;;;10.50;99.90;;;;;;4973966;28;20176;-79
2021/05/20 00:35:03;;;;;;;8.82;6.03;;;10.50;99.90;;;;;;4972950;28;20182;-79
2021/05/20 00:37:29;;;;;;;9.02;5.10;;;10.60;99.90;;;;;;4973942;28;20245;-82
2021/05/20 00:39:55;;;;;;;6.18;5.57;;;10.60;99.90;;;;;;4972593;28;20685;-80
2021/05/20 00:42:21;;;;;;;5.15;4.68;;;10.60;99.90;;;;;;4974088;28;20224;-80
2021/05/20 00:44:54;;;;;;;15.63;5.28;;;10.50;99.90;;;;;;4972471;28;20197;-80
2021/05/20 00:47:31;;;;;;;5.70;5.15;;;10.30;99.90;;;;;;4972391;28;20210;-79
2021/05/20 00:50:00;;;;;;;8.25;4.80;;;10.20;99.90;;;;;;4973764;28;20491;-80
2021/05/20 00:52:26;;;;;;;7.00;5.47;;;10.20;99.90;;;;;;4973676;28;20184;-80
2021/05/20 00:54:54;;;;;;;6.43;5.07;;;10.40;99.90;;;;;;4973723;28;20261;-80
2021/05/20 00:57:23;;;;;;;8.95;5.22;;;10.40;99.90;;;;;;4972536;28;20184;-80
2021/05/20 00:59:49;;;;;;;9.27;5.97;;;10.40;99.90;;;;;;4974029;28;20216;-79
2021/05/20 01:02:15;;;;;;;7.85;6.00;;;10.50;99.90;;;;;;4973764;28;20276;-79
2021/05/20 01:04:41;;;;;;;9.57;6.65;;;10.70;99.90;;;;;;4972244;28;20634;-80
2021/05/20 01:07:07;;;;;;;8.70;6.53;;;10.90;99.90;;;;;;4972639;28;20209;-80
2021/05/20 01:09:35;;;;;;;9.05;6.53;;;10.70;99.90;;;;;;4985237;28;20188;-79
2021/05/20 01:14:29;;;;;;;7.10;6.13;;;10.50;99.90;;;;;;4988936;28;20197;-79
2021/05/20 01:16:54;;;;;;;10.75;6.72;;;10.40;99.90;;;;;;4990152;28;20154;-79
2021/05/20 01:19:20;;;;;;;7.65;6.95;;;10.30;99.90;;;;;;4997769;28;20189;-78
2021/05/20 01:21:45;;;;;;;7.90;7.00;;;10.40;99.90;;;;;;4997406;28;20153;-78
2021/05/20 01:24:12;;;;;;;13.82;7.03;;;10.30;99.90;;;;;;4997194;28;20162;-79
2021/05/20 01:26:38;;;;;;;9.90;6.75;;;10.20;99.90;;;;;;4990742;28;20216;-78
2021/05/20 01:29:06;;;;;;;7.85;6.78;;;10.20;99.90;;;;;;4975575;28;20182;-80
2021/05/20 01:31:32;;;;;;;8.57;6.97;;;10.10;99.90;;;;;;4979204;28;20166;-79
2021/05/20 01:33:57;;;;;;;7.00;6.40;;;10.20;99.90;;;;;;4979948;28;20162;-78
2021/05/20 01:36:27;;;;;;;10.32;6.82;;;10.20;99.90;;;;;;4980169;28;20298;-79
2021/05/20 01:38:57;;;;;;;12.75;7.05;;;10.00;99.90;;;;;;4985600;28;20181;-79
2021/05/20 01:41:22;;;;;;;8.95;7.43;;;10.10;99.90;;;;;;4983393;28;20229;-80
2021/05/20 01:43:48;;;;;;;10.00;8.35;;;10.00;99.90;;;;;;4975768;28;20170;-79
2021/05/20 01:46:14;;;;;;;7.82;6.93;;;10.10;99.90;;;;;;4976906;28;20249;-79
2021/05/20 01:48:44;;;;;;;10.65;7.07;;;9.90;99.90;;;;;;4976882;28;20190;-79
2021/05/20 01:51:11;;;;;;;7.97;6.68;;;9.90;99.90;;;;;;4977083;28;20162;-79
2021/05/20 01:53:39;;;;;;;12.63;7.43;;;9.90;99.90;;;;;;4976944;28;20281;-79
2021/05/20 01:56:05;;;;;;;12.63;8.57;;;9.90;99.90;;;;;;4977027;28;20617;-79
2021/05/20 01:58:32;;;;;;;8.13;7.00;;;10.00;99.90;;;;;;4976731;28;20185;-79
2021/05/20 02:00:58;;;;;;;9.25;7.13;;;9.90;99.90;;;;;;4976647;28;20177;-79
2021/05/20 02:03:26;;;;;;;7.97;7.18;;;9.90;99.90;;;;;;4976452;28;20162;-79
2021/05/20 02:05:52;;;;;;;10.70;7.32;;;10.00;99.90;;;;;;4977001;28;20288;-79
2021/05/20 02:08:18;;;;;;;9.82;7.07;;;10.20;99.90;;;;;;4975462;28;20213;-79
2021/05/20 02:10:44;;;;;;;15.43;9.10;;;10.20;99.90;;;;;;4976471;28;20244;-79
2021/05/20 02:13:10;;;;;;;8.75;7.78;;;10.20;99.90;;;;;;4976431;28;20229;-79
2021/05/20 02:15:37;;;;;;;11.00;7.15;;;10.40;99.90;;;;;;4976356;28;20178;-78
2021/05/20 02:18:06;;;;;;;9.18;7.00;;;10.40;99.90;;;;;;4976515;28;20194;-78
2021/05/20 02:20:33;;;;;;;8.50;7.35;;;10.30;99.90;;;;;;4976783;28;20193;-79
2021/05/20 02:22:58;;;;;;;10.70;6.93;;;10.00;99.90;;;;;;4975358;28;20178;-81
2021/05/20 02:25:24;;;;;;;9.00;7.97;;;10.00;99.90;;;;;;4976347;28;20219;-79
2021/05/20 02:27:50;;;;;;;13.20;8.27;;;9.90;99.90;;;;;;4976662;28;20193;-79
2021/05/20 02:30:16;;;;;;;11.10;8.40;;;9.80;99.90;;;;;;4974743;28;20264;-79
2021/05/20 02:32:42;;;;;;;8.05;7.28;;;9.80;99.90;;;;;;4976416;28;20170;-80
2021/05/20 02:35:09;;;;;;;16.55;7.97;;;9.90;99.90;;;;;;4974916;28;20181;-80
2021/05/20 02:37:35;;;;;;;12.98;8.95;;;10.00;99.90;;;;;;4974802;28;20285;-79
2021/05/20 02:40:01;;;;;;;10.88;8.55;;;9.90;99.90;;;;;;4974800;28;20265;-78
2021/05/20 02:42:27;;;;;;;10.45;8.35;;;10.10;99.90;;;;;;4976215;28;20174;-79
2021/05/20 02:44:52;;;;;;;14.80;8.20;;;9.90;99.90;;;;;;4973981;28;20181;-78
2021/05/20 02:47:18;;;;;;;15.05;8.27;;;9.90;99.90;;;;;;4975371;28;20729;-79
2021/05/20 02:49:43;;;;;;;9.10;8.20;;;9.90;99.90;;;;;;4974520;28;20469;-80
2021/05/20 02:52:10;;;;;;;11.45;9.25;;;10.00;99.90;;;;;;4975922;28;20177;-79
2021/05/20 02:54:36;;;;;;;11.40;9.13;;;9.90;99.90;;;;;;4975662;28;20170;-79
2021/05/20 02:57:02;;;;;;;10.82;8.55;;;9.90;99.90;;;;;;4975482;28;20190;-80
2021/05/20 02:59:29;;;;;;;11.73;10.02;;;9.80;99.90;;;;;;4975208;28;20560;-80
2021/05/20 03:02:02;;;;;;;18.77;10.18;;;9.80;99.90;;;;;;4974140;28;20181;-80
2021/05/20 03:04:27;;;;;;;15.85;9.43;;;9.80;99.90;;;;;;4975515;28;20213;-80
2021/05/20 03:06:53;;;;;;;11.95;9.52;;;9.80;99.90;;;;;;4974206;28;20249;-80
2021/05/20 03:09:18;;;;;;;11.07;9.23;;;9.80;99.90;;;;;;4974016;28;20200;-80
2021/05/20 03:11:44;;;;;;;14.00;10.10;;;9.90;99.90;;;;;;4975212;28;20174;-80
2021/05/20 03:14:09;;;;;;;14.82;9.65;;;9.70;99.90;;;;;;4975398;28;20170;-80
2021/05/20 03:16:35;;;;;;;12.20;9.68;;;9.80;99.90;;;;;;4976798;28;20173;-82
2021/05/20 03:19:01;;;;;;;12.48;10.20;;;9.80;99.90;;;;;;4976236;28;20543;-81
2021/05/20 03:21:26;;;;;;;11.05;9.95;;;9.70;99.90;;;;;;4975787;28;20225;-80
2021/05/20 03:23:54;;;;;;;11.07;9.32;;;9.70;99.90;;;;;;4976265;28;20190;-80
2021/05/20 03:26:20;;;;;;;16.45;11.85;;;9.70;99.90;;;;;;4976223;28;20208;-80
2021/05/20 03:28:45;;;;;;;17.95;13.23;;;9.80;99.90;;;;;;4975833;28;20265;-79
2021/05/20 03:31:12;;;;;;;20.70;12.93;;;10.10;99.90;;;;;;4975451;28;20253;-81
2021/05/20 03:33:40;;;;;;;22.55;13.25;;;10.10;99.90;;;;;;4975530;28;20586;-80
2021/05/20 03:36:06;;;;;;;20.17;13.70;;;10.00;99.90;;;;;;4975301;28;20201;-80
2021/05/20 03:38:31;;;;;;;21.65;12.32;;;10.10;99.90;;;;;;4975586;28;20186;-80
2021/05/20 03:40:57;;;;;;;17.85;12.43;;;10.10;99.90;;;;;;4974672;28;20174;-80
2021/05/20 03:43:23;;;;;;;23.83;13.98;;;10.20;99.90;;;;;;4974890;28;20645;-80
2021/05/20 03:45:49;;;;;;;20.95;12.95;;;10.00;99.90;;;;;;4975144;28;20749;-80
2021/05/20 03:48:14;;;;;;;16.13;12.30;;;10.00;99.90;;;;;;4976757;28;20194;-80
2021/05/20 03:50:40;;;;;;;18.02;12.40;;;10.00;99.90;;;;;;4975717;28;20198;-80
2021/05/20 03:53:06;;;;;;;16.77;12.57;;;10.00;99.90;;;;;;4973842;28;20534;-78
2021/05/20 03:55:31;;;;;;;20.48;13.82;;;10.20;99.90;;;;;;4973684;28;20220;-79
2021/05/20 03:57:57;;;;;;;18.05;12.27;;;10.30;99.90;;;;;;4974668;28;20557;-79
2021/05/20 04:00:23;;;;;;;17.85;12.00;;;10.30;99.90;;;;;;4974768;28;20181;-80
2021/05/20 04:02:49;;;;;;;22.02;11.85;;;10.10;99.90;;;;;;4974417;28;20289;-79
2021/05/20 04:05:15;;;;;;;18.58;13.65;;;10.10;99.90;;;;;;4974437;28;20177;-79
2021/05/20 04:07:41;;;;;;;17.88;13.10;;;10.10;99.90;;;;;;4974555;28;20553;-80
2021/05/20 04:10:10;;;;;;;16.15;12.80;;;10.00;99.90;;;;;;4974839;28;20216;-79
2021/05/20 04:12:36;;;;;;;16.73;12.52;;;10.10;99.90;;;;;;4973557;28;20174;-80
2021/05/20 04:15:03;;;;;;;22.27;12.63;;;10.20;99.90;;;;;;4973822;28;20169;-79
2021/05/20 04:17:28;;;;;;;18.00;12.43;;;10.30;99.90;;;;;;4974602;28;20173;-79
2021/05/20 04:19:54;;;;;;;18.23;12.77;;;10.20;99.90;;;;;;4975251;28;20189;-80
2021/05/20 04:22:20;;;;;;;13.40;11.45;;;10.20;99.90;;;;;;4977144;28;20174;-79
2021/05/20 04:24:45;;;;;;;20.90;13.27;;;10.00;99.90;;;;;;4983232;28;20194;-79
2021/05/20 04:27:11;;;;;;;17.42;11.40;;;10.20;99.90;;;;;;4980792;28;20696;-79
2021/05/20 04:29:40;;;;;;;20.92;12.30;;;10.00;99.90;;;;;;4978353;28;20193;-79
2021/05/20 04:32:06;;;;;;;17.05;12.43;;;10.10;99.90;;;;;;4973797;28;20181;-79
2021/05/20 04:34:31;;;;;;;17.00;13.07;;;10.30;99.90;;;;;;4973100;28;20261;-79
2021/05/20 04:36:57;;;;;;;14.60;11.85;;;10.40;99.90;;;;;;4974398;28;20722;-79
2021/05/20 04:39:23;;;;;;;15.35;12.05;;;10.50;99.90;;;;;;4973816;28;20685;-79
2021/05/20 04:41:48;;;;;;;17.10;12.25;;;10.50;99.90;;;;;;4973868;28;20333;-80
2021/05/20 04:44:14;;;;;;;13.20;11.25;;;10.40;99.90;;;;;;4973892;28;20162;-79
2021/05/20 04:46:39;;;;;;;11.93;10.75;;;10.20;99.90;;;;;;4973691;28;20585;-79
2021/05/20 04:49:14;;;;;;;17.48;11.73;;;10.40;99.90;;;;;;4973119;28;20227;-79
2021/05/20 04:51:43;;;;;;;16.45;11.88;;;10.50;99.90;;;;;;4974001;28;20169;-80
2021/05/20 04:54:08;;;;;;;23.20;12.38;;;10.80;99.90;;;;;;4973883;28;20216;-80
2021/05/20 04:56:35;;;;;;;14.23;12.52;;;10.80;99.90;;;;;;4972579;28;20593;-79
2021/05/20 04:59:01;;;;;;;22.45;12.55;;;11.10;99.90;;;;;;4973809;28;20667;-80
2021/05/20 05:01:26;;;;;;;12.05;10.77;;;11.20;99.90;;;;;;4972291;28;20170;-80
2021/05/20 05:03:52;;;;;;;20.27;11.75;;;11.30;99.90;;;;;;4973976;28;20176;-78
2021/05/20 05:06:18;;;;;;;15.90;12.55;;;11.30;99.90;;;;;;4973526;28;20209;-80
2021/05/20 05:08:43;;;;;;;15.52;11.35;;;11.40;99.90;;;;;;4974429;28;20197;-80
2021/05/20 05:11:09;;;;;;;16.88;11.65;;;11.00;99.90;;;;;;4977932;28;20162;-80
2021/05/20 05:13:34;;;;;;;20.50;12.13;;;11.20;99.90;;;;;;4977792;28;20193;-79
2021/05/20 05:16:00;;;;;;;13.45;11.10;;;11.50;99.90;;;;;;4977779;28;20681;-79
2021/05/20 05:18:26;;;;;;;16.35;12.27;;;11.70;99.90;;;;;;4976524;28;20202;-79
2021/05/20 05:20:52;;;;;;;15.88;11.43;;;11.70;99.90;;;;;;4977874;28;20170;-80
2021/05/20 05:23:18;;;;;;;13.32;11.88;;;11.70;99.90;;;;;;4977637;28;20189;-79
2021/05/20 05:25:47;;;;;;;18.80;12.63;;;11.80;99.90;;;;;;4977340;28;20204;-79
2021/05/20 05:28:12;;;;;;;19.08;13.23;;;12.00;99.90;;;;;;4977493;28;20189;-81
2021/05/20 05:30:38;;;;;;;15.48;12.65;;;11.90;99.90;;;;;;4977383;28;20232;-80
2021/05/20 05:33:04;;;;;;;19.17;12.45;;;11.90;99.90;;;;;;4975745;28;20284;-80
2021/05/20 05:35:29;;;;;;;13.30;11.48;;;12.10;99.90;;;;;;4976195;28;20170;-80
2021/05/20 05:37:55;;;;;;;13.45;11.68;;;12.10;99.90;;;;;;4977785;28;20189;-80
2021/05/20 05:40:21;;;;;;;19.73;12.55;;;12.10;99.90;;;;;;4977190;28;20174;-80
2021/05/20 05:42:46;;;;;;;51.83;14.90;;;12.30;99.90;;;;;;4977629;28;20181;-79
2021/05/20 05:45:12;;;;;;;43.83;15.98;;;12.50;99.90;;;;;;4977189;28;20486;-80
2021/05/20 05:47:37;;;;;;;446.73;52.15;;;12.50;99.90;;;;;;4975617;28;20217;-80
2021/05/20 05:50:07;;;;;;;182.00;25.23;;;12.40;99.90;;;;;;4976608;28;20410;-80
2021/05/20 05:52:33;;;;;;;110.50;21.85;;;12.50;99.90;;;;;;4975618;28;20197;-80
2021/05/20 05:54:59;;;;;;;49.03;14.48;;;12.60;99.90;;;;;;4976582;28;20165;-80
2021/05/20 05:57:25;;;;;;;163.32;27.65;;;12.60;99.90;;;;;;4976458;28;20178;-80
2021/05/20 05:59:51;;;;;;;327.60;43.92;;;12.70;99.90;;;;;;4976925;28;20220;-80
2021/05/20 06:02:18;;;;;;;85.78;19.23;;;12.80;99.90;;;;;;4975333;28;20177;-79
2021/05/20 06:04:44;;;;;;;114.22;20.60;;;12.70;99.90;;;;;;4975302;28;20174;-80
2021/05/20 06:07:10;;;;;;;229.73;32.17;;;12.70;99.90;;;;;;4976170;28;20562;-78
2021/05/20 06:09:36;;;;;;;119.53;25.58;;;12.70;99.90;;;;;;4976171;28;20173;-78
2021/05/20 06:12:01;;;;;;;38.72;17.50;;;12.60;99.90;;;;;;4975874;28;20169;-78
2021/05/20 06:14:27;;;;;;;54.90;16.60;;;12.70;99.90;;;;;;4975757;28;20553;-78
2021/05/20 06:16:53;;;;;;;41.45;15.15;;;12.70;99.90;;;;;;4976396;28;20166;-78
2021/05/20 06:19:18;;;;;;;111.00;21.88;;;12.80;99.90;;;;;;4975476;28;20186;-80
2021/05/20 06:21:44;;;;;;;134.13;27.73;;;12.80;99.90;;;;;;4974783;28;20177;-79
2021/05/20 06:24:10;;;;;;;63.88;20.60;;;12.80;99.90;;;;;;4974648;28;20587;-80
2021/05/20 06:26:37;;;;;;;29.25;16.90;;;12.90;99.90;;;;;;4975813;28;20234;-79
2021/05/20 06:29:02;;;;;;;69.63;19.30;;;13.20;99.90;;;;;;4974326;28;20189;-80
2021/05/20 06:31:29;;;;;;;57.92;18.05;;;13.10;99.90;;;;;;4993450;28;20191;-78
2021/05/20 06:33:54;;;;;;;39.55;16.50;;;12.90;99.90;;;;;;4994994;28;20227;-78
2021/05/20 06:36:22;;;;;;;25.25;17.08;;;13.10;99.90;;;;;;4995291;28;20169;-81
2021/05/20 06:38:47;;;;;;;45.45;18.45;;;13.10;99.90;;;;;;4993319;28;20216;-79
2021/05/20 06:41:13;;;;;;;84.85;23.50;;;13.30;99.90;;;;;;4995181;28;20169;-80
2021/05/20 06:43:39;;;;;;;31.35;16.35;;;13.30;99.90;;;;;;4995152;28;20172;-79
2021/05/20 06:46:05;;;;;;;113.38;25.17;;;13.40;99.90;;;;;;4995214;28;20292;-80
2021/05/20 06:48:31;;;;;;;65.38;18.83;;;13.40;99.90;;;;;;4995126;28;20204;-79
2021/05/20 06:50:57;;;;;;;85.25;20.80;;;13.50;99.90;;;;;;4994902;28;20250;-79
2021/05/20 06:53:24;;;;;;;30.10;15.90;;;13.50;99.90;;;;;;4980435;28;20170;-80
2021/05/20 06:55:53;;;;;;;102.75;22.70;;;13.20;99.90;;;;;;4975823;28;20212;-80
2021/05/20 07:01:03;;;;;;;121.20;24.40;;;13.70;99.90;;;;;;4975782;28;20688;-79
2021/05/20 07:03:29;;;;;;;57.67;18.00;;;13.50;99.90;;;;;;4975716;28;20211;-79
2021/05/20 07:05:55;;;;;;;27.77;14.40;;;13.70;99.90;;;;;;4975584;28;20208;-79
2021/05/20 07:08:21;;;;;;;40.80;15.50;;;13.80;99.90;;;;;;4975612;28;20199;-79
2021/05/20 07:10:46;;;;;;;33.58;14.15;;;13.90;99.90;;;;;;4975315;28;20587;-77
2021/05/20 07:13:12;;;;;;;21.88;12.68;;;14.20;99.90;;;;;;4975217;28;20229;-78
2021/05/20 07:15:38;;;;;;;23.02;11.77;;;15.00;99.90;;;;;;4976693;28;20685;-81
2021/05/20 07:18:04;;;;;;;29.25;10.68;;;16.70;99.90;;;;;;4992060;28;20196;-80
2021/05/20 07:20:29;;;;;;;18.27;9.95;;;18.00;99.90;;;;;;4985435;28;20174;-78
2021/05/20 07:22:56;;;;;;;16.50;9.75;;;18.10;99.90;;;;;;4991475;28;20224;-83
2021/05/20 07:25:22;;;;;;;60.45;12.82;;;19.00;99.90;;;;;;4995921;28;20169;-82
2021/05/20 07:27:48;;;;;;;84.43;17.92;;;19.50;99.90;;;;;;4991561;28;20205;-86
2021/05/20 07:30:14;;;;;;;29.52;10.65;;;19.60;99.90;;;;;;4984953;28;20188;-81
2021/05/20 07:32:40;;;;;;;18.45;8.50;;;19.80;99.90;;;;;;4994569;28;20177;-81
2021/05/20 07:35:07;;;;;;;30.42;9.68;;;19.60;99.90;;;;;;4996247;28;20169;-79
2021/05/20 07:37:32;;;;;;;91.82;13.70;;;20.00;99.90;;;;;;4992758;28;20193;-81
2021/05/20 07:39:58;;;;;;;51.63;13.57;;;20.90;99.90;;;;;;4992550;28;20180;-81
2021/05/20 07:42:24;;;;;;;25.55;9.43;;;20.60;99.90;;;;;;4994056;28;20177;-81
2021/05/20 07:44:54;;;;;;;49.85;14.23;;;20.40;99.90;;;;;;4992875;28;20181;-79
2021/05/20 07:47:19;;;;;;;20.45;9.45;;;19.90;99.90;;;;;;4990179;28;20244;-78
2021/05/20 07:49:45;;;;;;;26.67;10.40;;;19.50;99.90;;;;;;4988420;28;20205;-79
2021/05/20 07:52:10;;;;;;;39.72;11.15;;;19.00;99.90;;;;;;4983939;28;20345;-79
2021/05/20 07:54:36;;;;;;;43.25;12.70;;;18.50;99.90;;;;;;4977866;28;20176;-78
2021/05/20 07:57:02;;;;;;;16.00;12.10;;;18.20;99.90;;;;;;4992174;28;20188;-79
2021/05/20 07:59:28;;;;;;;128.38;24.75;;;17.70;99.90;;;;;;4991904;28;20283;-78
2021/05/20 08:02:21;;;;;;;29.90;12.68;;;17.30;99.90;;;;;;4992148;28;20263;-79
2021/05/20 08:04:41;;;;;;;86.93;18.67;;;17.00;99.90;;;;;;4992160;28;20296;-80
2021/05/20 08:07:26;;;;;;;33.63;12.63;;;17.10;99.90;;;;;;4991867;28;20290;-81
2021/05/20 08:12:26;;;;;;;84.60;18.45;;;16.90;99.90;;;;;;4993357;28;20898;-81
2021/05/20 08:14:53;;;;;;;102.95;19.67;;;16.90;99.90;;;;;;4993483;28;20169;-82
2021/05/20 08:17:19;;;;;;;64.72;18.20;;;17.00;99.90;;;;;;4991917;28;20547;-80
2021/05/20 08:19:45;;;;;;;32.83;15.75;;;16.80;99.90;;;;;;4992690;28;20253;-82
2021/05/20 08:22:10;;;;;;;65.10;16.75;;;16.20;99.90;;;;;;4975712;28;20181;-81
2021/05/20 08:24:36;;;;;;;84.80;17.90;;;16.50;99.90;;;;;;4973164;28;20189;-81
2021/05/20 08:27:01;;;;;;;106.40;17.42;;;16.80;99.90;;;;;;5006791;28;20208;-81
2021/05/20 08:29:29;;;;;;;27.73;12.65;;;17.00;99.90;;;;;;4992393;28;20199;-78
2021/05/20 08:31:54;;;;;;;19.02;13.38;;;16.80;99.90;;;;;;4991684;28;20190;-81
2021/05/20 08:34:20;;;;;;;52.85;16.05;;;16.80;99.90;;;;;;4992918;28;20165;-80
2021/05/20 08:36:45;;;;;;;21.83;12.52;;;16.70;99.90;;;;;;4992303;28;20189;-79
2021/05/20 08:39:11;;;;;;;19.17;13.10;;;16.60;99.90;;;;;;4993470;28;20200;-80
2021/05/20 08:41:37;;;;;;;18.10;13.43;;;16.60;99.90;;;;;;5032503;28;20164;-81
2021/05/20 08:44:08;;;;;;;20.40;12.35;;;16.70;99.90;;;;;;5015565;28;20191;-80
2021/05/20 08:46:34;;;;;;;18.40;13.48;;;16.60;99.90;;;;;;5015777;28;20236;-79
2021/05/20 08:49:01;;;;;;;18.45;13.15;;;16.50;99.90;;;;;;5025358;28;20207;-80
2021/05/20 08:51:27;;;;;;;27.67;14.48;;;16.50;99.90;;;;;;4994512;28;20199;-81
2021/05/20 08:53:52;;;;;;;15.75;14.02;;;16.50;99.90;;;;;;4995094;28;20621;-81
2021/05/20 08:56:18;;;;;;;21.55;14.68;;;16.40;99.90;;;;;;4992796;28;20172;-80
2021/05/20 08:58:44;;;;;;;17.90;14.25;;;16.30;99.90;;;;;;4992443;28;20587;-82
2021/05/20 09:01:09;;;;;;;19.92;13.75;;;16.50;99.90;;;;;;4993856;28;20693;-81
2021/05/20 09:03:35;;;;;;;20.15;11.95;;;16.60;99.90;;;;;;4993056;28;20180;-80
2021/05/20 09:06:05;;;;;;;20.50;11.45;;;16.60;99.90;;;;;;4993598;28;20216;-80
2021/05/20 09:08:31;;;;;;;14.40;10.27;;;16.70;99.90;;;;;;4992039;28;20188;-81
2021/05/20 09:10:57;;;;;;;13.27;9.35;;;17.00;99.90;;;;;;4992545;28;20176;-82
2021/05/20 09:13:23;;;;;;;13.40;7.13;;;17.00;99.90;;;;;;4992796;28;20165;-82
2021/05/20 09:15:53;;;;;;;7.03;6.47;;;17.00;99.90;;;;;;4991879;28;20200;-82
2021/05/20 09:18:22;;;;;;;8.30;7.35;;;17.10;99.90;;;;;;4991511;28;20188;-82
2021/05/20 09:20:58;;;;;;;7.22;6.53;;;17.20;99.90;;;;;;4992131;28;20208;-82
2021/05/20 09:23:27;;;;;;;8.52;7.22;;;17.30;99.90;;;;;;4991399;28;20250;-81
2021/05/20 09:26:03;;;;;;;10.25;5.82;;;17.20;99.90;;;;;;4992615;28;20204;-82
2021/05/20 09:28:35;;;;;;;12.68;5.75;;;17.20;99.90;;;;;;5008444;28;20340;-83
2021/05/20 09:31:01;;;;;;;8.98;7.13;;;17.30;99.90;;;;;;5007801;28;20196;-83
2021/05/20 09:33:27;;;;;;;10.40;7.72;;;17.40;99.90;;;;;;4991722;28;20626;-82
2021/05/20 09:35:53;;;;;;;10.10;7.30;;;17.80;99.90;;;;;;5008520;28;20181;-82
2021/05/20 09:38:20;;;;;;;11.70;7.10;;;18.20;99.90;;;;;;4992191;28;20197;-82
2021/05/20 09:40:51;;;;;;;14.05;7.18;;;18.20;99.90;;;;;;4992332;28;20192;-79
2021/05/20 09:43:25;;;;;;;25.85;9.63;;;18.60;99.90;;;;;;4992737;28;20217;-80
2021/05/20 09:45:53;;;;;;;18.55;10.73;;;18.60;99.90;;;;;;4992618;28;20192;-79
2021/05/20 09:48:22;;;;;;;13.13;10.00;;;18.50;99.90;;;;;;4991215;28;20189;-85
2021/05/20 09:50:50;;;;;;;17.45;12.23;;;18.30;99.90;;;;;;4992953;28;20175;-80
2021/05/20 09:53:18;;;;;;;19.08;12.98;;;18.40;99.90;;;;;;4992076;28;20165;-79
2021/05/20 09:55:54;;;;;;;19.15;12.68;;;18.60;99.90;;;;;;4973510;28;20181;-78
2021/05/20 09:58:26;;;;;;;21.60;13.05;;;18.80;99.90;;;;;;4976197;28;20223;-79
2021/05/20 10:00:56;;;;;;;19.67;13.30;;;19.10;99.90;;;;;;4976637;28;20248;-79
2021/05/20 10:03:26;;;;;;;20.67;11.60;;;19.10;99.90;;;;;;4991120;28;20599;-80
2021/05/20 10:05:53;;;;;;;20.90;11.75;;;19.50;99.90;;;;;;4992430;28;20243;-79
2021/05/20 10:08:20;;;;;;;11.13;9.15;;;19.60;99.90;;;;;;4975828;28;20256;-78
2021/05/20 10:10:53;;;;;;;20.52;8.98;;;19.60;99.90;;;;;;4976631;28;20166;-79
2021/05/20 10:13:33;;;;;;;8.95;7.95;;;19.60;99.90;;;;;;4980824;28;20211;-82
2021/05/20 10:15:59;;;;;;;8.18;7.38;;;19.10;99.90;;;;;;4983756;28;20181;-81
2021/05/20 10:18:27;;;;;;;9.32;7.90;;;18.50;99.90;;;;;;5006022;28;20624;-80
2021/05/20 10:21:03;;;;;;;7.53;6.82;;;19.00;99.90;;;;;;4991481;28;20177;-81
2021/05/20 10:24:07;;;;;;;11.25;8.50;;;18.90;99.90;;;;;;4992761;28;20283;-80
2021/05/20 10:26:39;;;;;;;10.02;6.82;;;19.10;99.90;;;;;;4984532;28;20256;-79
2021/05/20 10:29:05;;;;;;;7.93;4.75;;;19.00;99.90;;;;;;4995041;28;20204;-80
2021/05/20 10:31:31;;;;;;;11.25;5.30;;;18.70;99.90;;;;;;4993800;28;20169;-80
2021/05/20 10:34:03;;;;;;;8.07;4.68;;;18.70;99.90;;;;;;4994877;28;20552;-81
2021/05/20 10:36:29;;;;;;;4.85;4.45;;;19.20;99.90;;;;;;4993845;28;20173;-80
2021/05/20 10:38:55;;;;;;;6.65;4.88;;;19.00;99.90;;;;;;4993360;28;20820;-80
2021/05/20 10:41:23;;;;;;;47.20;7.78;;;18.70;99.90;;;;;;4994593;28;20165;-80
2021/05/20 10:43:56;;;;;;;57.85;11.18;;;18.60;99.90;;;;;;4994185;28;20169;-82
2021/05/20 10:46:21;;;;;;;40.17;7.40;;;18.60;99.90;;;;;;4994479;28;20255;-80
2021/05/20 10:48:58;;;;;;;18.25;6.60;;;18.60;99.90;;;;;;4990488;28;20193;-82
2021/05/20 10:51:24;;;;;;;73.35;11.38;;;19.00;99.90;;;;;;4985038;28;20181;-82
2021/05/20 10:54:05;;;;;;;46.72;7.38;;;19.10;99.90;;;;;;4995310;28;20161;-80
2021/05/20 10:56:34;;;;;;;7.47;4.32;;;18.80;99.90;;;;;;4993947;28;20188;-79
2021/05/20 10:59:32;;;;;;;107.68;11.70;;;19.00;99.90;;;;;;4993771;28;20185;-79
2021/05/20 11:01:58;;;;;;;19.08;4.53;;;19.00;99.90;;;;;;4992628;28;20260;-79
2021/05/20 11:04:45;;;;;;;31.52;6.40;;;19.00;99.90;;;;;;4993918;28;20585;-78
2021/05/20 11:07:12;;;;;;;25.77;6.40;;;19.10;99.90;;;;;;4992402;28;20392;-78
2021/05/20 11:10:11;;;;;;;55.08;7.90;;;19.10;99.90;;;;;;4994036;28;20655;-79
2021/05/20 11:12:56;;;;;;;182.13;21.55;;;19.30;99.90;;;;;;4993684;28;20174;-79
2021/05/20 11:15:25;;;;;;;60.85;8.63;;;19.50;99.90;;;;;;4994307;28;20177;-81
2021/05/20 11:17:51;;;;;;;108.35;11.90;;;19.60;99.90;;;;;;4993777;28;20280;-81
2021/05/20 11:20:36;;;;;;;13.65;3.40;;;19.70;99.90;;;;;;4993246;28;20261;-80
2021/05/20 11:23:20;;;;;;;48.92;6.25;;;19.90;99.90;;;;;;4993996;28;20260;-80
2021/05/20 11:26:17;;;;;;;38.90;6.45;;;20.10;99.90;;;;;;4994269;28;20524;-80
2021/05/20 11:28:43;;;;;;;48.55;8.90;;;19.40;99.90;;;;;;4994331;28;20196;-80
2021/05/20 11:31:10;;;;;;;8.20;3.10;;;19.70;99.90;;;;;;4994381;28;20165;-82
2021/05/20 11:36:37;;;;;;;45.08;8.20;;;19.90;99.90;;;;;;4970529;28;20181;-81
2021/05/20 11:39:06;;;;;;;31.63;7.47;;;19.90;99.90;;;;;;4986274;28;20194;-80
2021/05/20 11:41:34;;;;;;;9.95;3.95;;;20.10;99.90;;;;;;4992025;28;20173;-80
2021/05/20 11:44:08;;;;;;;12.75;3.83;;;20.00;99.90;;;;;;4993519;28;20276;-80
2021/05/20 11:46:35;;;;;;;29.70;5.53;;;19.80;99.90;;;;;;4993161;28;20269;-80
2021/05/20 11:49:03;;;;;;;36.72;5.25;;;19.40;99.90;;;;;;4994437;28;20224;-81
2021/05/20 11:51:42;;;;;;;3.65;3.20;;;19.50;99.90;;;;;;4992341;28;20303;-80
2021/05/20 11:54:12;;;;;;;23.60;5.00;;;19.50;99.90;;;;;;4993245;28;20637;-80
2021/05/20 11:56:43;;;;;;;25.67;3.92;;;19.40;99.90;;;;;;4993563;28;20200;-80
2021/05/20 11:59:09;;;;;;;51.22;8.23;;;19.40;99.90;;;;;;4992597;28;20193;-81
2021/05/20 12:01:36;;;;;;;53.58;5.20;;;19.30;99.90;;;;;;4992753;28;20181;-81
2021/05/20 12:04:06;;;;;;;74.22;8.15;;;19.20;99.90;;;;;;4993520;28;20165;-81
2021/05/20 12:06:32;;;;;;;37.28;5.13;;;18.80;99.90;;;;;;4993915;28;20205;-82
2021/05/20 12:09:04;;;;;;;66.10;11.18;;;18.50;99.90;;;;;;4992282;28;20301;-82
2021/05/20 12:11:30;;;;;;;23.50;3.55;;;18.60;99.90;;;;;;4994329;28;20657;-81
2021/05/20 12:13:55;;;;;;;22.15;4.45;;;18.70;99.90;;;;;;4994021;28;20170;-82
2021/05/20 12:16:32;;;;;;;41.45;5.88;;;18.80;99.90;;;;;;4994065;28;20182;-81
2021/05/20 12:18:58;;;;;;;156.00;13.80;;;19.00;99.90;;;;;;4992277;28;20193;-82
2021/05/20 12:21:24;;;;;;;22.90;4.40;;;19.20;99.90;;;;;;4994055;28;20197;-82
2021/05/20 12:23:54;;;;;;;103.82;11.48;;;19.50;99.90;;;;;;4993721;28;20161;-82
2021/05/20 12:26:27;;;;;;;6.13;2.55;;;19.50;99.90;;;;;;4994213;28;20564;-81
2021/05/20 12:28:56;;;;;;;9.00;2.30;;;19.20;99.90;;;;;;4992355;28;20205;-81
2021/05/20 12:31:22;;;;;;;16.23;3.22;;;19.40;99.90;;;;;;4992408;28;20256;-82
2021/05/20 12:33:48;;;;;;;7.55;2.60;;;19.40;99.90;;;;;;4992293;28;20253;-81
2021/05/20 12:36:30;;;;;;;54.30;4.55;;;19.10;99.90;;;;;;4992570;28;20260;-81
2021/05/20 12:38:56;;;;;;;11.85;3.38;;;19.20;99.90;;;;;;4993816;28;20554;-82
2021/05/20 12:41:33;;;;;;;60.90;5.72;;;19.30;99.90;;;;;;4992106;28;20179;-81
2021/05/20 12:44:14;;;;;;;19.77;4.68;;;19.50;99.90;;;;;;4992141;28;20655;-81
2021/05/20 12:46:40;;;;;;;10.50;3.20;;;19.50;99.90;;;;;;4993109;28;20205;-82